sensor_id;sensor_type;location;lat;lon;timestamp;P1;durP1;ratioP1;P2;durP2;ratioP2
26702;SDS011;14316;51.074;3.704;2023-04-12T00:00:32;8.80;;;3.60;;
26702;SDS011;14316;51.074;3.704;2023-04-12T00:02:57;7.10;;;3.55;;
26702;SDS011;14316;51.074;3.704;2023-04-12T00:05:27;7.97;;;3.58;;
26702;SDS011;14316;51.074;3.704;2023-04-12T00:07:53;5.72;;;2.97;;
26702;SDS011;14316;51.074;3.704;2023-04-12T00:10:20;7.53;;;2.78;;
26702;SDS011;14316;51.074;3.704;2023-04-12T00:12:46;6.78;;;3.30;;
26702;SDS011;14316;51.074;3.704;2023-04-12T00:15:12;10.15;;;3.17;;
26702;SDS011;14316;51.074;3.704;2023-04-12T00:17:38;6.82;;;2.92;;
26702;SDS011;14316;51.074;3.704;2023-04-12T00:20:05;5.60;;;2.92;;
26702;SDS011;14316;51.074;3.704;2023-04-12T00:22:36;8.05;;;2.88;;
26702;SDS011;14316;51.074;3.704;2023-04-12T00:25:08;7.75;;;3.42;;
26702;SDS011;14316;51.074;3.704;2023-04-12T00:27:34;7.95;;;2.88;;
26702;SDS011;14316;51.074;3.704;2023-04-12T00:30:00;8.43;;;3.25;;
26702;SDS011;14316;51.074;3.704;2023-04-12T00:32:27;7.63;;;3.22;;
26702;SDS011;14316;51.074;3.704;2023-04-12T00:34:53;9.63;;;3.20;;
26702;SDS011;14316;51.074;3.704;2023-04-12T00:37:19;8.80;;;3.30;;
26702;SDS011;14316;51.074;3.704;2023-04-12T00:39:45;8.38;;;3.92;;
26702;SDS011;14316;51.074;3.704;2023-04-12T00:42:11;10.55;;;3.45;;
26702;SDS011;14316;51.074;3.704;2023-04-12T00:44:38;6.47;;;2.72;;
26702;SDS011;14316;51.074;3.704;2023-04-12T00:47:04;5.05;;;2.58;;
26702;SDS011;14316;51.074;3.704;2023-04-12T00:49:31;7.43;;;3.38;;
26702;SDS011;14316;51.074;3.704;2023-04-12T00:51:59;9.40;;;3.35;;
26702;SDS011;14316;51.074;3.704;2023-04-12T00:54:28;9.00;;;3.60;;
26702;SDS011;14316;51.074;3.704;2023-04-12T00:56:58;9.60;;;3.30;;
26702;SDS011;14316;51.074;3.704;2023-04-12T00:59:25;7.93;;;3.33;;
26702;SDS011;14316;51.074;3.704;2023-04-12T01:01:52;6.63;;;3.10;;
26702;SDS011;14316;51.074;3.704;2023-04-12T01:04:22;10.20;;;3.53;;
26702;SDS011;14316;51.074;3.704;2023-04-12T01:16:16;5.53;;;2.53;;
26702;SDS011;14316;51.074;3.704;2023-04-12T01:18:44;10.35;;;3.38;;
26702;SDS011;14316;51.074;3.704;2023-04-12T01:21:17;9.05;;;3.25;;
26702;SDS011;14316;51.074;3.704;2023-04-12T01:26:44;5.20;;;3.00;;
26702;SDS011;14316;51.074;3.704;2023-04-12T01:29:17;7.53;;;3.40;;
26702;SDS011;14316;51.074;3.704;2023-04-12T01:31:48;7.90;;;3.38;;
26702;SDS011;14316;51.074;3.704;2023-04-12T01:34:15;7.78;;;3.47;;
26702;SDS011;14316;51.074;3.704;2023-04-12T01:36:42;7.18;;;3.42;;
26702;SDS011;14316;51.074;3.704;2023-04-12T01:39:11;7.30;;;3.10;;
26702;SDS011;14316;51.074;3.704;2023-04-12T01:41:39;6.75;;;3.10;;
26702;SDS011;14316;51.074;3.704;2023-04-12T01:44:11;8.98;;;3.42;;
26702;SDS011;14316;51.074;3.704;2023-04-12T01:46:38;9.00;;;3.72;;
26702;SDS011;14316;51.074;3.704;2023-04-12T01:49:05;5.97;;;2.92;;
26702;SDS011;14316;51.074;3.704;2023-04-12T01:54:05;7.55;;;2.92;;
26702;SDS011;14316;51.074;3.704;2023-04-12T01:56:36;7.03;;;3.67;;
26702;SDS011;14316;51.074;3.704;2023-04-12T01:59:09;10.50;;;3.70;;
26702;SDS011;14316;51.074;3.704;2023-04-12T02:01:39;9.27;;;2.90;;
26702;SDS011;14316;51.074;3.704;2023-04-12T02:04:06;9.15;;;3.50;;
26702;SDS011;14316;51.074;3.704;2023-04-12T02:06:33;5.40;;;3.00;;
26702;SDS011;14316;51.074;3.704;2023-04-12T02:09:01;7.40;;;3.13;;
26702;SDS011;14316;51.074;3.704;2023-04-12T02:11:28;8.40;;;3.55;;
26702;SDS011;14316;51.074;3.704;2023-04-12T02:13:55;9.48;;;3.50;;
26702;SDS011;14316;51.074;3.704;2023-04-12T02:16:21;7.15;;;3.50;;
26702;SDS011;14316;51.074;3.704;2023-04-12T02:18:49;8.15;;;3.55;;
26702;SDS011;14316;51.074;3.704;2023-04-12T02:21:16;4.82;;;2.85;;
26702;SDS011;14316;51.074;3.704;2023-04-12T02:23:43;6.40;;;2.92;;
26702;SDS011;14316;51.074;3.704;2023-04-12T02:26:09;5.97;;;3.17;;
26702;SDS011;14316;51.074;3.704;2023-04-12T02:28:36;7.75;;;3.75;;
26702;SDS011;14316;51.074;3.704;2023-04-12T02:31:03;6.10;;;3.65;;
26702;SDS011;14316;51.074;3.704;2023-04-12T02:33:29;6.18;;;3.33;;
26702;SDS011;14316;51.074;3.704;2023-04-12T02:35:56;6.93;;;3.03;;
26702;SDS011;14316;51.074;3.704;2023-04-12T02:38:24;4.53;;;2.30;;
26702;SDS011;14316;51.074;3.704;2023-04-12T02:40:50;7.70;;;2.80;;
26702;SDS011;14316;51.074;3.704;2023-04-12T02:43:16;6.05;;;2.92;;
26702;SDS011;14316;51.074;3.704;2023-04-12T02:45:42;8.45;;;3.05;;
26702;SDS011;14316;51.074;3.704;2023-04-12T02:48:08;6.72;;;2.72;;
26702;SDS011;14316;51.074;3.704;2023-04-12T02:50:35;5.70;;;3.42;;
26702;SDS011;14316;51.074;3.704;2023-04-12T02:53:02;6.03;;;2.67;;
26702;SDS011;14316;51.074;3.704;2023-04-12T02:55:28;4.97;;;2.95;;
26702;SDS011;14316;51.074;3.704;2023-04-12T02:57:54;7.50;;;2.88;;
26702;SDS011;14316;51.074;3.704;2023-04-12T03:00:21;7.10;;;3.38;;
26702;SDS011;14316;51.074;3.704;2023-04-12T03:02:48;5.90;;;3.45;;
26702;SDS011;14316;51.074;3.704;2023-04-12T03:05:15;4.78;;;2.63;;
26702;SDS011;14316;51.074;3.704;2023-04-12T03:07:42;8.40;;;3.83;;
26702;SDS011;14316;51.074;3.704;2023-04-12T03:10:08;3.35;;;3.05;;
26702;SDS011;14316;51.074;3.704;2023-04-12T03:12:38;4.90;;;3.50;;
26702;SDS011;14316;51.074;3.704;2023-04-12T03:15:04;8.85;;;4.15;;
26702;SDS011;14316;51.074;3.704;2023-04-12T03:17:31;6.25;;;3.75;;
26702;SDS011;14316;51.074;3.704;2023-04-12T03:20:02;7.95;;;4.55;;
26702;SDS011;14316;51.074;3.704;2023-04-12T03:22:31;7.68;;;4.50;;
26702;SDS011;14316;51.074;3.704;2023-04-12T03:24:57;8.02;;;4.32;;
26702;SDS011;14316;51.074;3.704;2023-04-12T03:27:24;6.63;;;4.60;;
26702;SDS011;14316;51.074;3.704;2023-04-12T03:29:50;9.38;;;5.35;;
26702;SDS011;14316;51.074;3.704;2023-04-12T03:32:16;8.90;;;5.10;;
26702;SDS011;14316;51.074;3.704;2023-04-12T03:34:42;7.95;;;5.38;;
26702;SDS011;14316;51.074;3.704;2023-04-12T03:37:09;7.43;;;5.40;;
26702;SDS011;14316;51.074;3.704;2023-04-12T03:39:36;7.78;;;5.32;;
26702;SDS011;14316;51.074;3.704;2023-04-12T03:42:02;8.55;;;6.45;;
26702;SDS011;14316;51.074;3.704;2023-04-12T03:44:28;8.77;;;5.80;;
26702;SDS011;14316;51.074;3.704;2023-04-12T03:46:54;7.53;;;4.85;;
26702;SDS011;14316;51.074;3.704;2023-04-12T03:49:20;7.85;;;6.25;;
26702;SDS011;14316;51.074;3.704;2023-04-12T03:51:46;6.00;;;3.53;;
26702;SDS011;14316;51.074;3.704;2023-04-12T03:54:15;9.60;;;6.78;;
26702;SDS011;14316;51.074;3.704;2023-04-12T03:56:40;6.07;;;3.95;;
26702;SDS011;14316;51.074;3.704;2023-04-12T03:59:06;10.35;;;6.00;;
26702;SDS011;14316;51.074;3.704;2023-04-12T04:01:33;9.07;;;4.85;;
26702;SDS011;14316;51.074;3.704;2023-04-12T04:04:00;8.50;;;5.80;;
26702;SDS011;14316;51.074;3.704;2023-04-12T04:06:26;10.60;;;6.20;;
26702;SDS011;14316;51.074;3.704;2023-04-12T04:08:54;8.88;;;5.72;;
26702;SDS011;14316;51.074;3.704;2023-04-12T04:11:23;12.43;;;5.60;;
26702;SDS011;14316;51.074;3.704;2023-04-12T04:13:50;7.85;;;5.55;;
26702;SDS011;14316;51.074;3.704;2023-04-12T04:16:16;10.02;;;5.72;;
26702;SDS011;14316;51.074;3.704;2023-04-12T04:18:42;12.88;;;6.47;;
26702;SDS011;14316;51.074;3.704;2023-04-12T04:21:08;10.35;;;6.75;;
26702;SDS011;14316;51.074;3.704;2023-04-12T04:23:34;8.00;;;5.38;;
26702;SDS011;14316;51.074;3.704;2023-04-12T04:26:03;9.38;;;5.55;;
26702;SDS011;14316;51.074;3.704;2023-04-12T04:28:30;13.63;;;8.10;;
26702;SDS011;14316;51.074;3.704;2023-04-12T04:30:58;12.98;;;7.78;;
26702;SDS011;14316;51.074;3.704;2023-04-12T04:35:55;10.88;;;6.07;;
26702;SDS011;14316;51.074;3.704;2023-04-12T04:38:22;13.13;;;7.60;;
26702;SDS011;14316;51.074;3.704;2023-04-12T04:40:50;14.13;;;6.93;;
26702;SDS011;14316;51.074;3.704;2023-04-12T04:43:20;7.75;;;5.57;;
26702;SDS011;14316;51.074;3.704;2023-04-12T04:45:46;12.82;;;6.50;;
26702;SDS011;14316;51.074;3.704;2023-04-12T04:48:13;16.92;;;7.60;;
26702;SDS011;14316;51.074;3.704;2023-04-12T04:50:40;13.43;;;6.70;;
26702;SDS011;14316;51.074;3.704;2023-04-12T04:53:08;12.32;;;6.90;;
26702;SDS011;14316;51.074;3.704;2023-04-12T04:55:34;10.15;;;5.72;;
26702;SDS011;14316;51.074;3.704;2023-04-12T04:58:00;12.43;;;6.22;;
26702;SDS011;14316;51.074;3.704;2023-04-12T05:00:25;15.63;;;6.97;;
26702;SDS011;14316;51.074;3.704;2023-04-12T05:02:51;12.57;;;5.30;;
26702;SDS011;14316;51.074;3.704;2023-04-12T05:05:18;13.00;;;6.47;;
26702;SDS011;14316;51.074;3.704;2023-04-12T05:07:47;13.50;;;5.10;;
26702;SDS011;14316;51.074;3.704;2023-04-12T05:10:13;9.52;;;4.25;;
26702;SDS011;14316;51.074;3.704;2023-04-12T05:12:39;18.45;;;5.47;;
26702;SDS011;14316;51.074;3.704;2023-04-12T05:15:05;13.55;;;4.85;;
26702;SDS011;14316;51.074;3.704;2023-04-12T05:17:32;17.48;;;4.70;;
26702;SDS011;14316;51.074;3.704;2023-04-12T05:19:59;16.27;;;4.72;;
26702;SDS011;14316;51.074;3.704;2023-04-12T05:22:25;19.83;;;4.15;;
26702;SDS011;14316;51.074;3.704;2023-04-12T05:24:53;17.42;;;4.55;;
26702;SDS011;14316;51.074;3.704;2023-04-12T05:27:23;19.33;;;4.30;;
26702;SDS011;14316;51.074;3.704;2023-04-12T05:29:48;15.77;;;4.75;;
26702;SDS011;14316;51.074;3.704;2023-04-12T05:32:15;16.65;;;3.78;;
26702;SDS011;14316;51.074;3.704;2023-04-12T05:34:40;17.77;;;4.50;;
26702;SDS011;14316;51.074;3.704;2023-04-12T05:37:08;19.33;;;4.63;;
26702;SDS011;14316;51.074;3.704;2023-04-12T05:39:34;19.13;;;4.93;;
26702;SDS011;14316;51.074;3.704;2023-04-12T05:42:00;23.30;;;4.95;;
26702;SDS011;14316;51.074;3.704;2023-04-12T05:44:26;20.48;;;5.43;;
26702;SDS011;14316;51.074;3.704;2023-04-12T05:46:52;16.15;;;4.25;;
26702;SDS011;14316;51.074;3.704;2023-04-12T05:49:18;18.80;;;4.80;;
26702;SDS011;14316;51.074;3.704;2023-04-12T05:51:44;20.15;;;4.10;;
26702;SDS011;14316;51.074;3.704;2023-04-12T05:54:10;19.33;;;4.50;;
26702;SDS011;14316;51.074;3.704;2023-04-12T05:56:36;23.92;;;4.55;;
26702;SDS011;14316;51.074;3.704;2023-04-12T05:59:02;15.88;;;4.78;;
26702;SDS011;14316;51.074;3.704;2023-04-12T06:01:29;18.90;;;4.10;;
26702;SDS011;14316;51.074;3.704;2023-04-12T06:03:57;17.15;;;4.13;;
26702;SDS011;14316;51.074;3.704;2023-04-12T06:06:23;14.23;;;3.40;;
26702;SDS011;14316;51.074;3.704;2023-04-12T06:08:54;13.93;;;3.33;;
26702;SDS011;14316;51.074;3.704;2023-04-12T06:11:22;17.60;;;3.78;;
26702;SDS011;14316;51.074;3.704;2023-04-12T06:13:48;12.70;;;3.88;;
26702;SDS011;14316;51.074;3.704;2023-04-12T06:16:14;20.88;;;3.92;;
26702;SDS011;14316;51.074;3.704;2023-04-12T06:18:40;18.38;;;3.97;;
26702;SDS011;14316;51.074;3.704;2023-04-12T06:21:06;22.85;;;4.53;;
26702;SDS011;14316;51.074;3.704;2023-04-12T06:23:32;20.05;;;4.03;;
26702;SDS011;14316;51.074;3.704;2023-04-12T06:25:58;19.55;;;4.15;;
26702;SDS011;14316;51.074;3.704;2023-04-12T06:28:24;15.15;;;3.13;;
26702;SDS011;14316;51.074;3.704;2023-04-12T06:30:50;19.65;;;4.63;;
26702;SDS011;14316;51.074;3.704;2023-04-12T06:33:16;16.02;;;3.83;;
26702;SDS011;14316;51.074;3.704;2023-04-12T06:35:42;15.85;;;3.53;;
26702;SDS011;14316;51.074;3.704;2023-04-12T06:38:08;15.95;;;3.17;;
26702;SDS011;14316;51.074;3.704;2023-04-12T06:40:34;13.77;;;3.88;;
26702;SDS011;14316;51.074;3.704;2023-04-12T06:43:00;22.80;;;4.90;;
26702;SDS011;14316;51.074;3.704;2023-04-12T06:45:26;16.70;;;3.58;;
26702;SDS011;14316;51.074;3.704;2023-04-12T06:47:52;26.27;;;4.25;;
26702;SDS011;14316;51.074;3.704;2023-04-12T06:50:21;15.55;;;3.72;;
26702;SDS011;14316;51.074;3.704;2023-04-12T06:52:47;15.90;;;3.92;;
26702;SDS011;14316;51.074;3.704;2023-04-12T06:55:13;13.82;;;3.65;;
26702;SDS011;14316;51.074;3.704;2023-04-12T06:57:42;19.77;;;4.40;;
26702;SDS011;14316;51.074;3.704;2023-04-12T07:00:09;17.92;;;4.10;;
26702;SDS011;14316;51.074;3.704;2023-04-12T07:02:35;14.32;;;2.95;;
26702;SDS011;14316;51.074;3.704;2023-04-12T07:05:03;11.20;;;2.60;;
26702;SDS011;14316;51.074;3.704;2023-04-12T07:07:30;12.30;;;3.33;;
26702;SDS011;14316;51.074;3.704;2023-04-12T07:09:56;12.00;;;3.17;;
26702;SDS011;14316;51.074;3.704;2023-04-12T07:12:24;13.30;;;2.05;;
26702;SDS011;14316;51.074;3.704;2023-04-12T07:14:50;14.40;;;2.42;;
26702;SDS011;14316;51.074;3.704;2023-04-12T07:17:16;14.55;;;3.00;;
26702;SDS011;14316;51.074;3.704;2023-04-12T07:19:42;14.15;;;2.70;;
26702;SDS011;14316;51.074;3.704;2023-04-12T07:22:08;16.15;;;3.30;;
26702;SDS011;14316;51.074;3.704;2023-04-12T07:24:34;15.70;;;3.72;;
26702;SDS011;14316;51.074;3.704;2023-04-12T07:27:00;16.67;;;4.38;;
26702;SDS011;14316;51.074;3.704;2023-04-12T07:29:26;5.68;;;2.50;;
26702;SDS011;14316;51.074;3.704;2023-04-12T07:31:52;10.43;;;3.03;;
26702;SDS011;14316;51.074;3.704;2023-04-12T07:34:18;10.32;;;2.33;;
26702;SDS011;14316;51.074;3.704;2023-04-12T07:36:44;13.18;;;2.55;;
26702;SDS011;14316;51.074;3.704;2023-04-12T07:39:10;11.68;;;3.10;;
26702;SDS011;14316;51.074;3.704;2023-04-12T07:41:37;4.30;;;1.45;;
26702;SDS011;14316;51.074;3.704;2023-04-12T07:44:03;10.77;;;2.67;;
26702;SDS011;14316;51.074;3.704;2023-04-12T07:46:29;10.88;;;2.22;;
26702;SDS011;14316;51.074;3.704;2023-04-12T07:48:55;7.88;;;2.45;;
26702;SDS011;14316;51.074;3.704;2023-04-12T07:51:21;9.30;;;2.25;;
26702;SDS011;14316;51.074;3.704;2023-04-12T07:53:47;8.82;;;2.50;;
26702;SDS011;14316;51.074;3.704;2023-04-12T07:56:13;6.07;;;2.22;;
26702;SDS011;14316;51.074;3.704;2023-04-12T07:58:39;7.25;;;1.98;;
26702;SDS011;14316;51.074;3.704;2023-04-12T08:01:05;10.52;;;3.08;;
26702;SDS011;14316;51.074;3.704;2023-04-12T08:03:34;12.10;;;3.40;;
26702;SDS011;14316;51.074;3.704;2023-04-12T08:06:00;10.73;;;2.85;;
26702;SDS011;14316;51.074;3.704;2023-04-12T08:08:29;8.52;;;2.88;;
26702;SDS011;14316;51.074;3.704;2023-04-12T08:10:54;9.85;;;3.35;;
26702;SDS011;14316;51.074;3.704;2023-04-12T08:13:20;10.18;;;2.80;;
26702;SDS011;14316;51.074;3.704;2023-04-12T08:15:46;11.27;;;3.17;;
26702;SDS011;14316;51.074;3.704;2023-04-12T08:18:12;7.65;;;2.97;;
26702;SDS011;14316;51.074;3.704;2023-04-12T08:20:38;12.25;;;2.97;;
26702;SDS011;14316;51.074;3.704;2023-04-12T08:23:08;11.30;;;3.05;;
26702;SDS011;14316;51.074;3.704;2023-04-12T08:25:35;9.27;;;3.28;;
26702;SDS011;14316;51.074;3.704;2023-04-12T08:28:00;12.07;;;3.95;;
26702;SDS011;14316;51.074;3.704;2023-04-12T08:30:27;11.93;;;3.97;;
26702;SDS011;14316;51.074;3.704;2023-04-12T08:32:53;10.45;;;2.83;;
26702;SDS011;14316;51.074;3.704;2023-04-12T08:35:19;6.03;;;2.28;;
26702;SDS011;14316;51.074;3.704;2023-04-12T08:37:46;6.88;;;2.20;;
26702;SDS011;14316;51.074;3.704;2023-04-12T08:40:12;8.27;;;2.70;;
26702;SDS011;14316;51.074;3.704;2023-04-12T08:42:38;6.97;;;2.72;;
26702;SDS011;14316;51.074;3.704;2023-04-12T08:45:08;13.40;;;3.00;;
26702;SDS011;14316;51.074;3.704;2023-04-12T08:47:39;8.88;;;2.83;;
26702;SDS011;14316;51.074;3.704;2023-04-12T08:50:06;9.77;;;3.35;;
26702;SDS011;14316;51.074;3.704;2023-04-12T08:52:33;10.43;;;3.00;;
26702;SDS011;14316;51.074;3.704;2023-04-12T08:55:06;9.00;;;2.67;;
26702;SDS011;14316;51.074;3.704;2023-04-12T08:57:35;8.95;;;3.20;;
26702;SDS011;14316;51.074;3.704;2023-04-12T09:00:04;13.18;;;3.42;;
26702;SDS011;14316;51.074;3.704;2023-04-12T09:02:33;12.18;;;3.35;;
26702;SDS011;14316;51.074;3.704;2023-04-12T09:05:00;6.20;;;2.15;;
26702;SDS011;14316;51.074;3.704;2023-04-12T09:07:25;12.57;;;3.50;;
26702;SDS011;14316;51.074;3.704;2023-04-12T09:09:53;17.08;;;3.63;;
26702;SDS011;14316;51.074;3.704;2023-04-12T09:12:19;13.95;;;2.78;;
26702;SDS011;14316;51.074;3.704;2023-04-12T09:14:48;8.35;;;3.08;;
26702;SDS011;14316;51.074;3.704;2023-04-12T09:17:34;14.75;;;3.30;;
26702;SDS011;14316;51.074;3.704;2023-04-12T09:22:42;16.02;;;4.70;;
26702;SDS011;14316;51.074;3.704;2023-04-12T09:25:10;21.80;;;4.15;;
26702;SDS011;14316;51.074;3.704;2023-04-12T09:27:45;13.65;;;4.32;;
26702;SDS011;14316;51.074;3.704;2023-04-12T09:30:12;13.43;;;2.83;;
26702;SDS011;14316;51.074;3.704;2023-04-12T09:32:39;12.95;;;3.13;;
26702;SDS011;14316;51.074;3.704;2023-04-12T09:35:05;15.85;;;3.28;;
26702;SDS011;14316;51.074;3.704;2023-04-12T09:37:31;13.15;;;3.60;;
26702;SDS011;14316;51.074;3.704;2023-04-12T09:39:57;8.05;;;2.63;;
26702;SDS011;14316;51.074;3.704;2023-04-12T09:42:28;16.35;;;2.90;;
26702;SDS011;14316;51.074;3.704;2023-04-12T09:44:54;15.05;;;3.75;;
26702;SDS011;14316;51.074;3.704;2023-04-12T09:47:39;15.50;;;4.18;;
26702;SDS011;14316;51.074;3.704;2023-04-12T09:50:06;14.65;;;3.72;;
26702;SDS011;14316;51.074;3.704;2023-04-12T09:52:37;6.95;;;2.22;;
26702;SDS011;14316;51.074;3.704;2023-04-12T09:55:07;8.63;;;2.75;;
26702;SDS011;14316;51.074;3.704;2023-04-12T09:57:39;16.83;;;3.50;;
26702;SDS011;14316;51.074;3.704;2023-04-12T10:00:06;20.35;;;4.95;;
26702;SDS011;14316;51.074;3.704;2023-04-12T10:02:38;13.15;;;3.60;;
26702;SDS011;14316;51.074;3.704;2023-04-12T10:05:05;11.75;;;3.10;;
26702;SDS011;14316;51.074;3.704;2023-04-12T10:07:34;15.02;;;3.42;;
26702;SDS011;14316;51.074;3.704;2023-04-12T10:10:01;13.73;;;3.38;;
26702;SDS011;14316;51.074;3.704;2023-04-12T10:12:30;9.80;;;2.75;;
26702;SDS011;14316;51.074;3.704;2023-04-12T10:14:55;9.75;;;2.15;;
26702;SDS011;14316;51.074;3.704;2023-04-12T10:17:22;7.88;;;1.92;;
26702;SDS011;14316;51.074;3.704;2023-04-12T10:19:50;10.75;;;2.45;;
26702;SDS011;14316;51.074;3.704;2023-04-12T10:22:17;8.05;;;2.17;;
26702;SDS011;14316;51.074;3.704;2023-04-12T10:24:43;10.82;;;2.47;;
26702;SDS011;14316;51.074;3.704;2023-04-12T10:27:09;6.15;;;1.80;;
26702;SDS011;14316;51.074;3.704;2023-04-12T10:29:37;6.10;;;2.15;;
26702;SDS011;14316;51.074;3.704;2023-04-12T10:32:22;11.23;;;2.83;;
26702;SDS011;14316;51.074;3.704;2023-04-12T10:34:53;7.40;;;2.15;;
26702;SDS011;14316;51.074;3.704;2023-04-12T10:37:22;6.63;;;1.80;;
26702;SDS011;14316;51.074;3.704;2023-04-12T10:40:25;10.25;;;1.80;;
26702;SDS011;14316;51.074;3.704;2023-04-12T10:45:48;7.18;;;2.30;;
26702;SDS011;14316;51.074;3.704;2023-04-12T10:48:36;9.68;;;2.55;;
26702;SDS011;14316;51.074;3.704;2023-04-12T10:53:51;14.95;;;3.45;;
26702;SDS011;14316;51.074;3.704;2023-04-12T10:59:02;8.65;;;2.60;;
26702;SDS011;14316;51.074;3.704;2023-04-12T11:01:29;4.53;;;1.85;;
26702;SDS011;14316;51.074;3.704;2023-04-12T11:04:09;9.05;;;2.15;;
26702;SDS011;14316;51.074;3.704;2023-04-12T11:09:20;3.70;;;1.20;;
26702;SDS011;14316;51.074;3.704;2023-04-12T11:11:50;7.15;;;1.40;;
26702;SDS011;14316;51.074;3.704;2023-04-12T11:14:32;5.53;;;1.38;;
26702;SDS011;14316;51.074;3.704;2023-04-12T11:19:39;3.25;;;1.02;;
26702;SDS011;14316;51.074;3.704;2023-04-12T11:22:08;3.33;;;1.08;;
26702;SDS011;14316;51.074;3.704;2023-04-12T11:24:45;4.07;;;0.82;;
26702;SDS011;14316;51.074;3.704;2023-04-12T11:27:17;2.75;;;1.10;;
26702;SDS011;14316;51.074;3.704;2023-04-12T11:29:44;3.58;;;1.55;;
26702;SDS011;14316;51.074;3.704;2023-04-12T11:32:12;3.03;;;1.10;;
26702;SDS011;14316;51.074;3.704;2023-04-12T11:34:39;3.72;;;1.50;;
26702;SDS011;14316;51.074;3.704;2023-04-12T11:37:07;4.82;;;0.90;;
26702;SDS011;14316;51.074;3.704;2023-04-12T11:39:43;3.47;;;1.40;;
26702;SDS011;14316;51.074;3.704;2023-04-12T11:42:19;6.43;;;1.48;;
26702;SDS011;14316;51.074;3.704;2023-04-12T11:44:49;2.33;;;1.13;;
26702;SDS011;14316;51.074;3.704;2023-04-12T11:47:17;3.75;;;2.00;;
26702;SDS011;14316;51.074;3.704;2023-04-12T11:49:51;2.88;;;1.65;;
26702;SDS011;14316;51.074;3.704;2023-04-12T11:52:22;5.10;;;2.30;;
26702;SDS011;14316;51.074;3.704;2023-04-12T11:54:54;3.92;;;1.30;;
26702;SDS011;14316;51.074;3.704;2023-04-12T11:57:23;3.85;;;1.70;;
26702;SDS011;14316;51.074;3.704;2023-04-12T11:59:49;5.57;;;1.90;;
26702;SDS011;14316;51.074;3.704;2023-04-12T12:02:16;5.05;;;1.75;;
26702;SDS011;14316;51.074;3.704;2023-04-12T12:04:43;2.40;;;1.75;;
26702;SDS011;14316;51.074;3.704;2023-04-12T12:07:12;3.55;;;1.90;;
26702;SDS011;14316;51.074;3.704;2023-04-12T12:09:39;3.75;;;1.17;;
26702;SDS011;14316;51.074;3.704;2023-04-12T12:12:07;2.42;;;1.60;;
26702;SDS011;14316;51.074;3.704;2023-04-12T12:14:36;4.57;;;1.70;;
26702;SDS011;14316;51.074;3.704;2023-04-12T12:17:09;3.50;;;1.02;;
26702;SDS011;14316;51.074;3.704;2023-04-12T12:19:40;4.13;;;1.27;;
26702;SDS011;14316;51.074;3.704;2023-04-12T12:22:18;3.13;;;0.87;;
26702;SDS011;14316;51.074;3.704;2023-04-12T12:24:48;3.20;;;1.65;;
26702;SDS011;14316;51.074;3.704;2023-04-12T12:27:18;3.70;;;1.38;;
26702;SDS011;14316;51.074;3.704;2023-04-12T12:29:48;3.83;;;1.08;;
26702;SDS011;14316;51.074;3.704;2023-04-12T12:32:16;5.68;;;1.60;;
26702;SDS011;14316;51.074;3.704;2023-04-12T12:34:49;1.77;;;0.82;;
26702;SDS011;14316;51.074;3.704;2023-04-12T12:37:18;5.10;;;1.30;;
26702;SDS011;14316;51.074;3.704;2023-04-12T12:42:47;3.75;;;0.80;;
26702;SDS011;14316;51.074;3.704;2023-04-12T12:45:15;3.78;;;1.38;;
26702;SDS011;14316;51.074;3.704;2023-04-12T12:50:13;4.97;;;1.48;;
26702;SDS011;14316;51.074;3.704;2023-04-12T12:52:42;4.22;;;1.13;;
26702;SDS011;14316;51.074;3.704;2023-04-12T12:55:09;1.80;;;0.90;;
26702;SDS011;14316;51.074;3.704;2023-04-12T12:57:35;2.53;;;1.17;;
26702;SDS011;14316;51.074;3.704;2023-04-12T13:00:01;2.40;;;1.10;;
26702;SDS011;14316;51.074;3.704;2023-04-12T13:02:28;2.42;;;1.27;;
26702;SDS011;14316;51.074;3.704;2023-04-12T13:04:54;3.50;;;1.45;;
26702;SDS011;14316;51.074;3.704;2023-04-12T13:07:21;3.97;;;1.15;;
26702;SDS011;14316;51.074;3.704;2023-04-12T13:09:47;3.47;;;1.23;;
26702;SDS011;14316;51.074;3.704;2023-04-12T13:12:13;7.57;;;1.70;;
26702;SDS011;14316;51.074;3.704;2023-04-12T13:14:42;3.40;;;0.98;;
26702;SDS011;14316;51.074;3.704;2023-04-12T13:17:07;3.75;;;1.00;;
26702;SDS011;14316;51.074;3.704;2023-04-12T13:19:33;2.22;;;0.80;;
26702;SDS011;14316;51.074;3.704;2023-04-12T13:21:59;2.75;;;1.10;;
26702;SDS011;14316;51.074;3.704;2023-04-12T13:24:24;4.95;;;1.42;;
26702;SDS011;14316;51.074;3.704;2023-04-12T13:26:50;5.03;;;1.40;;
26702;SDS011;14316;51.074;3.704;2023-04-12T13:29:16;4.80;;;1.48;;
26702;SDS011;14316;51.074;3.704;2023-04-12T13:31:42;4.93;;;1.50;;
26702;SDS011;14316;51.074;3.704;2023-04-12T13:34:08;5.50;;;2.17;;
26702;SDS011;14316;51.074;3.704;2023-04-12T13:36:34;7.90;;;1.73;;
26702;SDS011;14316;51.074;3.704;2023-04-12T13:39:00;4.10;;;1.42;;
26702;SDS011;14316;51.074;3.704;2023-04-12T13:41:26;7.22;;;1.88;;
26702;SDS011;14316;51.074;3.704;2023-04-12T13:43:51;5.82;;;1.75;;
26702;SDS011;14316;51.074;3.704;2023-04-12T13:46:17;4.75;;;1.90;;
26702;SDS011;14316;51.074;3.704;2023-04-12T13:48:43;7.55;;;2.53;;
26702;SDS011;14316;51.074;3.704;2023-04-12T13:51:09;6.10;;;1.25;;
26702;SDS011;14316;51.074;3.704;2023-04-12T13:53:35;3.75;;;1.33;;
26702;SDS011;14316;51.074;3.704;2023-04-12T13:56:01;4.45;;;1.20;;
26702;SDS011;14316;51.074;3.704;2023-04-12T13:58:27;2.05;;;0.82;;
26702;SDS011;14316;51.074;3.704;2023-04-12T14:00:52;3.13;;;0.95;;
26702;SDS011;14316;51.074;3.704;2023-04-12T14:03:20;3.08;;;0.93;;
26702;SDS011;14316;51.074;3.704;2023-04-12T14:05:46;7.38;;;1.50;;
26702;SDS011;14316;51.074;3.704;2023-04-12T14:08:12;3.60;;;1.40;;
26702;SDS011;14316;51.074;3.704;2023-04-12T14:10:38;2.92;;;1.02;;
26702;SDS011;14316;51.074;3.704;2023-04-12T14:13:03;4.97;;;1.13;;
26702;SDS011;14316;51.074;3.704;2023-04-12T14:15:29;1.55;;;0.50;;
26702;SDS011;14316;51.074;3.704;2023-04-12T14:17:55;1.65;;;0.50;;
26702;SDS011;14316;51.074;3.704;2023-04-12T14:20:20;2.38;;;0.55;;
26702;SDS011;14316;51.074;3.704;2023-04-12T14:22:48;3.00;;;0.80;;
26702;SDS011;14316;51.074;3.704;2023-04-12T14:25:14;5.13;;;1.00;;
26702;SDS011;14316;51.074;3.704;2023-04-12T14:27:40;4.00;;;0.82;;
26702;SDS011;14316;51.074;3.704;2023-04-12T14:30:06;2.75;;;0.65;;
26702;SDS011;14316;51.074;3.704;2023-04-12T14:32:32;2.40;;;0.93;;
26702;SDS011;14316;51.074;3.704;2023-04-12T14:34:58;2.72;;;0.88;;
26702;SDS011;14316;51.074;3.704;2023-04-12T14:37:23;1.33;;;0.70;;
26702;SDS011;14316;51.074;3.704;2023-04-12T14:39:51;2.20;;;1.25;;
26702;SDS011;14316;51.074;3.704;2023-04-12T14:42:17;5.22;;;1.33;;
26702;SDS011;14316;51.074;3.704;2023-04-12T14:44:43;6.03;;;1.13;;
26702;SDS011;14316;51.074;3.704;2023-04-12T14:47:12;6.13;;;1.13;;
26702;SDS011;14316;51.074;3.704;2023-04-12T14:49:38;4.00;;;0.95;;
26702;SDS011;14316;51.074;3.704;2023-04-12T14:52:03;2.70;;;1.00;;
26702;SDS011;14316;51.074;3.704;2023-04-12T14:54:30;4.22;;;1.17;;
26702;SDS011;14316;51.074;3.704;2023-04-12T14:56:56;2.78;;;1.08;;
26702;SDS011;14316;51.074;3.704;2023-04-12T14:59:22;3.78;;;0.90;;
26702;SDS011;14316;51.074;3.704;2023-04-12T15:01:48;3.70;;;1.30;;
26702;SDS011;14316;51.074;3.704;2023-04-12T15:04:14;4.63;;;1.30;;
26702;SDS011;14316;51.074;3.704;2023-04-12T15:06:40;3.40;;;0.90;;
26702;SDS011;14316;51.074;3.704;2023-04-12T15:09:07;3.17;;;1.23;;
26702;SDS011;14316;51.074;3.704;2023-04-12T15:11:33;3.55;;;1.00;;
26702;SDS011;14316;51.074;3.704;2023-04-12T15:13:59;2.65;;;0.90;;
26702;SDS011;14316;51.074;3.704;2023-04-12T15:16:27;3.33;;;1.17;;
26702;SDS011;14316;51.074;3.704;2023-04-12T15:18:53;4.65;;;1.00;;
26702;SDS011;14316;51.074;3.704;2023-04-12T15:21:19;1.85;;;0.90;;
26702;SDS011;14316;51.074;3.704;2023-04-12T15:23:45;4.00;;;1.13;;